createdAt,value
2023-04-07T00:00:28.191Z,2.41
2023-04-07T00:01:28.235Z,2.43
2023-04-07T00:02:28.255Z,2.39
2023-04-07T00:03:28.383Z,2.37
2023-04-07T00:04:28.641Z,2.41
2023-04-07T00:05:28.231Z,2.37
2023-04-07T00:06:28.242Z,2.32
2023-04-07T00:07:28.250Z,2.30
2023-04-07T00:08:28.258Z,2.39
2023-04-07T00:09:28.268Z,2.30
2023-04-07T00:10:28.284Z,2.26
2023-04-07T00:11:28.283Z,2.26
2023-04-07T00:12:28.294Z,2.21
2023-04-07T00:13:29.470Z,2.16
2023-04-07T00:14:28.309Z,2.14
2023-04-07T00:15:28.328Z,2.21
2023-04-07T00:16:28.329Z,2.21
2023-04-07T00:17:28.359Z,2.25
2023-04-07T00:18:28.343Z,2.15
2023-04-07T00:19:28.357Z,2.16
2023-04-07T00:20:28.361Z,2.14
2023-04-07T00:21:28.372Z,2.12
2023-04-07T00:22:28.380Z,2.18
2023-04-07T00:23:28.388Z,2.15
2023-04-07T00:24:34.386Z,2.12
2023-04-07T00:25:28.408Z,2.03
2023-04-07T00:26:28.413Z,2.04
2023-04-07T00:27:28.423Z,1.98
2023-04-07T00:28:28.431Z,2.00
2023-04-07T00:29:28.440Z,2.00
2023-04-07T00:30:28.454Z,2.00
2023-04-07T00:31:28.488Z,1.97
2023-04-07T00:32:28.494Z,1.92
2023-04-07T00:33:28.476Z,1.84
2023-04-07T00:34:28.481Z,1.95
2023-04-07T00:35:28.504Z,1.88
2023-04-07T00:36:28.500Z,1.98
2023-04-07T00:37:28.513Z,1.92
2023-04-07T00:38:28.516Z,1.92
2023-04-07T00:39:28.523Z,1.81
2023-04-07T00:40:28.553Z,1.84
2023-04-07T00:41:28.540Z,1.92
2023-04-07T00:42:28.557Z,1.85
2023-04-07T00:43:28.582Z,1.95
2023-04-07T00:44:28.564Z,1.82
2023-04-07T00:45:28.578Z,1.81
2023-04-07T00:46:28.674Z,1.93
2023-04-07T00:47:28.630Z,1.86
2023-04-07T00:48:28.601Z,1.79
2023-04-07T00:49:28.605Z,1.82
2023-04-07T00:50:28.614Z,1.89
2023-04-07T00:51:28.624Z,1.85
2023-04-07T00:52:28.636Z,1.82
2023-04-07T00:53:28.640Z,1.81
2023-04-07T00:54:28.655Z,1.84
2023-04-07T00:55:28.668Z,1.82
2023-04-07T00:56:28.665Z,1.82
2023-04-07T00:57:28.676Z,1.76
2023-04-07T00:58:28.682Z,1.79
2023-04-07T00:59:28.689Z,1.78
2023-04-07T01:00:28.697Z,1.75
2023-04-07T01:01:28.810Z,1.81
2023-04-07T01:02:28.868Z,1.70
2023-04-07T01:03:28.930Z,1.74
2023-04-07T01:04:28.856Z,1.75
2023-04-07T01:05:28.746Z,1.75
2023-04-07T01:06:28.748Z,1.70
2023-04-07T01:07:28.760Z,1.75
2023-04-07T01:08:28.762Z,1.81
2023-04-07T01:09:28.781Z,1.74
2023-04-07T01:10:28.778Z,1.78
2023-04-07T01:11:28.791Z,1.75
2023-04-07T01:12:28.800Z,1.79
2023-04-07T01:13:28.822Z,1.71
2023-04-07T01:14:28.812Z,1.70
2023-04-07T01:15:28.822Z,1.71
2023-04-07T01:16:28.872Z,1.68
2023-04-07T01:17:28.870Z,1.78
2023-04-07T01:18:28.845Z,1.76
2023-04-07T01:19:28.853Z,1.70
2023-04-07T01:20:28.863Z,1.70
2023-04-07T01:21:28.905Z,1.75
2023-04-07T01:22:28.878Z,1.68
2023-04-07T01:23:28.884Z,1.61
2023-04-07T01:24:28.902Z,1.66
2023-04-07T01:25:28.909Z,1.68
2023-04-07T01:26:28.912Z,1.67
2023-04-07T01:27:28.926Z,1.71
2023-04-07T01:28:28.927Z,1.66
2023-04-07T01:29:28.937Z,1.70
2023-04-07T01:30:28.945Z,1.71
2023-04-07T01:31:28.978Z,1.66
2023-04-07T01:32:28.988Z,1.68
2023-04-07T01:33:28.969Z,1.71
2023-04-07T01:34:28.982Z,1.71
2023-04-07T01:35:28.993Z,1.61
2023-04-07T01:36:28.996Z,1.63
2023-04-07T01:37:29.003Z,1.64
2023-04-07T01:38:29.008Z,1.67
2023-04-07T01:39:29.041Z,1.68
2023-04-07T01:40:29.043Z,1.67
2023-04-07T01:41:29.048Z,1.64
2023-04-07T01:42:29.043Z,1.67
2023-04-07T01:43:29.051Z,1.58
2023-04-07T01:44:29.065Z,1.68
2023-04-07T01:45:29.072Z,1.70
2023-04-07T01:46:29.076Z,1.61
2023-04-07T01:47:29.269Z,1.67
2023-04-07T01:48:29.093Z,1.58
2023-04-07T01:49:29.101Z,1.64
2023-04-07T01:50:29.114Z,1.58
2023-04-07T01:51:29.121Z,1.61
2023-04-07T01:52:29.127Z,1.67
2023-04-07T01:53:29.138Z,1.58
2023-04-07T01:54:29.145Z,1.64
2023-04-07T01:55:29.150Z,1.63
2023-04-07T01:56:29.159Z,1.67
2023-04-07T01:57:29.172Z,1.68
2023-04-07T01:58:29.178Z,1.63
2023-04-07T01:59:29.188Z,1.64
2023-04-07T02:00:29.194Z,1.60
2023-04-07T02:01:29.302Z,1.57
2023-04-07T02:02:29.360Z,1.56
2023-04-07T02:03:29.264Z,1.60
2023-04-07T02:04:29.223Z,1.56
2023-04-07T02:05:29.238Z,1.49
2023-04-07T02:06:29.251Z,1.66
2023-04-07T02:07:29.260Z,1.53
2023-04-07T02:08:30.475Z,1.48
2023-04-07T02:09:29.266Z,1.49
2023-04-07T02:10:29.280Z,1.50
2023-04-07T02:11:29.304Z,1.53
2023-04-07T02:12:29.296Z,1.48
2023-04-07T02:13:29.314Z,1.56
2023-04-07T02:14:29.307Z,1.57
2023-04-07T02:15:29.312Z,1.45
2023-04-07T02:16:29.361Z,1.45
2023-04-07T02:17:29.377Z,1.49
2023-04-07T02:18:29.341Z,1.45
2023-04-07T02:19:29.347Z,1.45
2023-04-07T02:20:29.359Z,1.46
2023-04-07T02:21:29.363Z,1.48
2023-04-07T02:22:29.379Z,1.36
2023-04-07T02:23:29.380Z,1.49
2023-04-07T02:24:29.389Z,1.46
2023-04-07T02:25:29.402Z,1.46
2023-04-07T02:26:29.409Z,1.39
2023-04-07T02:27:29.421Z,1.45
2023-04-07T02:28:29.420Z,1.34
2023-04-07T02:29:29.436Z,1.39
2023-04-07T02:30:29.438Z,1.36
2023-04-07T02:31:29.483Z,1.40
2023-04-07T02:32:29.509Z,1.38
2023-04-07T02:33:29.465Z,1.34
2023-04-07T02:34:29.470Z,1.39
2023-04-07T02:35:29.487Z,1.36
2023-04-07T02:36:29.491Z,1.32
2023-04-07T02:37:29.493Z,1.42
2023-04-07T02:38:29.501Z,1.36
2023-04-07T02:39:29.517Z,1.38
2023-04-07T02:40:29.518Z,1.38
2023-04-07T02:41:29.527Z,1.42
2023-04-07T02:42:29.537Z,1.34
2023-04-07T02:43:29.539Z,1.34
2023-04-07T02:44:29.550Z,1.38
2023-04-07T02:45:29.568Z,1.36
2023-04-07T02:46:29.624Z,1.36
2023-04-07T02:47:29.582Z,1.38
2023-04-07T02:48:29.584Z,1.40
2023-04-07T02:49:29.591Z,1.43
2023-04-07T02:50:29.607Z,1.39
2023-04-07T02:51:29.608Z,1.32
2023-04-07T02:52:29.617Z,1.31
2023-04-07T02:53:29.621Z,1.36
2023-04-07T02:54:29.627Z,1.34
2023-04-07T02:55:29.645Z,1.42
2023-04-07T02:56:29.656Z,1.39
2023-04-07T02:57:29.650Z,1.38
2023-04-07T02:58:29.662Z,1.36
2023-04-07T02:59:29.672Z,1.36
2023-04-07T03:00:29.675Z,1.39
2023-04-07T03:01:29.740Z,1.25
2023-04-07T03:02:29.783Z,1.39
2023-04-07T03:03:29.776Z,1.36
2023-04-07T03:04:29.729Z,1.34
2023-04-07T03:05:29.715Z,1.27
2023-04-07T03:06:29.723Z,1.40
2023-04-07T03:07:29.733Z,1.34
2023-04-07T03:08:29.740Z,1.42
2023-04-07T03:09:29.749Z,1.36
2023-04-07T03:10:29.766Z,1.30
2023-04-07T03:11:29.766Z,1.38
2023-04-07T03:12:29.773Z,1.38
2023-04-07T03:13:29.786Z,1.36
2023-04-07T03:14:29.789Z,1.40
2023-04-07T03:15:29.795Z,1.39
2023-04-07T03:16:29.939Z,1.39
2023-04-07T03:17:29.847Z,1.38
2023-04-07T03:18:29.818Z,1.39
2023-04-07T03:19:29.826Z,1.36
2023-04-07T03:20:29.836Z,1.38
2023-04-07T03:21:29.846Z,1.38
2023-04-07T03:22:29.852Z,1.25
2023-04-07T03:23:29.861Z,1.36
2023-04-07T03:24:29.869Z,1.42
2023-04-07T03:25:29.879Z,1.24
2023-04-07T03:26:29.886Z,1.24
2023-04-07T03:27:29.892Z,1.36
2023-04-07T03:28:29.910Z,1.39
2023-04-07T03:29:29.912Z,1.36
2023-04-07T03:30:29.954Z,1.36
2023-04-07T03:31:29.933Z,1.34
2023-04-07T03:32:29.988Z,1.36
2023-04-07T03:33:29.962Z,1.42
2023-04-07T03:34:29.953Z,1.36
2023-04-07T03:35:29.967Z,1.40
2023-04-07T03:36:29.968Z,1.40
2023-04-07T03:37:29.975Z,1.46
2023-04-07T03:38:29.984Z,1.42
2023-04-07T03:39:30.020Z,1.43
2023-04-07T03:40:30.007Z,1.46
2023-04-07T03:41:30.005Z,1.43
2023-04-07T03:42:30.027Z,1.49
2023-04-07T03:43:30.023Z,1.43
2023-04-07T03:44:30.032Z,1.57
2023-04-07T03:45:30.044Z,1.57
2023-04-07T03:46:30.071Z,1.56
2023-04-07T03:47:30.076Z,1.50
2023-04-07T03:48:30.062Z,1.56
2023-04-07T03:49:30.071Z,1.57
2023-04-07T03:50:30.086Z,1.58
2023-04-07T03:51:30.086Z,1.60
2023-04-07T03:52:30.096Z,1.60
2023-04-07T03:53:30.108Z,1.63
2023-04-07T03:54:30.112Z,1.64
2023-04-07T03:55:30.123Z,1.67
2023-04-07T03:56:30.136Z,1.70
2023-04-07T03:57:30.138Z,1.67
2023-04-07T03:58:30.151Z,1.67
2023-04-07T03:59:30.157Z,1.78
2023-04-07T04:00:30.162Z,1.76
2023-04-07T04:01:30.186Z,1.82
2023-04-07T04:02:30.245Z,1.78
2023-04-07T04:03:30.295Z,1.82
2023-04-07T04:04:30.228Z,1.81
2023-04-07T04:05:30.205Z,1.79
2023-04-07T04:06:30.213Z,1.85
2023-04-07T04:07:30.226Z,1.93
2023-04-07T04:08:30.231Z,1.95
2023-04-07T04:09:30.246Z,1.93
2023-04-07T04:10:30.247Z,1.98
2023-04-07T04:11:30.253Z,1.95
2023-04-07T04:12:30.263Z,1.98
2023-04-07T04:13:30.272Z,1.95
2023-04-07T04:14:30.295Z,2.03
2023-04-07T04:15:30.289Z,2.04
2023-04-07T04:16:30.434Z,2.04
2023-04-07T04:17:30.354Z,2.14
2023-04-07T04:18:30.318Z,2.08
2023-04-07T04:19:30.324Z,2.12
2023-04-07T04:20:30.343Z,2.12
2023-04-07T04:21:30.347Z,2.16
2023-04-07T04:22:30.347Z,2.15
2023-04-07T04:23:30.357Z,2.16
2023-04-07T04:24:30.374Z,2.18
2023-04-07T04:25:30.382Z,2.16
2023-04-07T04:26:30.384Z,2.16
2023-04-07T04:27:30.394Z,2.28
2023-04-07T04:28:30.400Z,2.22
2023-04-07T04:29:31.705Z,2.23
2023-04-07T04:30:30.417Z,2.22
2023-04-07T04:31:30.439Z,2.34
2023-04-07T04:32:30.466Z,2.30
2023-04-07T04:33:30.446Z,2.25
2023-04-07T04:34:30.455Z,2.37
2023-04-07T04:35:30.496Z,2.39
2023-04-07T04:36:30.473Z,2.39
2023-04-07T04:37:30.484Z,2.37
2023-04-07T04:38:30.488Z,2.40
2023-04-07T04:39:30.499Z,2.44
2023-04-07T04:40:30.514Z,2.34
2023-04-07T04:41:30.520Z,2.46
2023-04-07T04:42:30.526Z,2.37
2023-04-07T04:43:30.543Z,2.51
2023-04-07T04:44:30.542Z,2.50
2023-04-07T04:45:30.551Z,2.51
2023-04-07T04:46:30.615Z,2.47
2023-04-07T04:47:30.606Z,2.43
2023-04-07T04:48:30.578Z,2.47
2023-04-07T04:49:30.587Z,2.50
2023-04-07T04:50:30.600Z,2.47
2023-04-07T04:51:30.614Z,2.50
2023-04-07T04:52:30.615Z,2.52
2023-04-07T04:53:30.635Z,2.62
2023-04-07T04:54:30.632Z,2.52
2023-04-07T04:55:30.670Z,2.58
2023-04-07T04:56:30.650Z,2.64
2023-04-07T04:57:30.664Z,2.65
2023-04-07T04:58:30.668Z,2.64
2023-04-07T04:59:30.684Z,2.68
2023-04-07T05:00:30.694Z,2.59
2023-04-07T05:01:32.768Z,2.64
2023-04-07T05:02:30.867Z,2.65
2023-04-07T05:03:30.921Z,2.61
2023-04-07T05:04:30.943Z,2.73
2023-04-07T05:05:30.731Z,2.76
2023-04-07T05:06:30.742Z,2.77
2023-04-07T05:07:30.753Z,2.73
2023-04-07T05:08:30.764Z,2.76
2023-04-07T05:09:30.768Z,2.75
2023-04-07T05:10:30.775Z,2.75
2023-04-07T05:11:30.786Z,2.73
2023-04-07T05:12:30.801Z,2.79
2023-04-07T05:13:30.805Z,2.83
2023-04-07T05:14:30.826Z,2.88
2023-04-07T05:15:30.835Z,2.87
2023-04-07T05:16:30.907Z,2.85
2023-04-07T05:17:30.869Z,3.00
2023-04-07T05:18:30.857Z,2.80
2023-04-07T05:19:30.864Z,3.00
2023-04-07T05:20:30.871Z,3.03
2023-04-07T05:21:30.891Z,2.91
2023-04-07T05:22:30.900Z,2.93
2023-04-07T05:23:30.896Z,3.03
2023-04-07T05:24:30.908Z,3.05
2023-04-07T05:25:30.925Z,3.12
2023-04-07T05:26:30.926Z,3.11
2023-04-07T05:27:30.944Z,3.08
2023-04-07T05:28:30.945Z,3.27
2023-04-07T05:29:30.957Z,3.24
2023-04-07T05:30:30.974Z,3.26
2023-04-07T05:31:31.046Z,3.30
2023-04-07T05:32:31.021Z,3.26
2023-04-07T05:33:30.996Z,3.36
2023-04-07T05:34:31.012Z,3.43
2023-04-07T05:35:31.015Z,3.45
2023-04-07T05:36:31.096Z,3.45
2023-04-07T05:37:31.036Z,3.52
2023-04-07T05:38:31.043Z,3.48
2023-04-07T05:39:31.053Z,3.58
2023-04-07T05:40:31.062Z,3.61
2023-04-07T05:41:31.073Z,3.64
2023-04-07T05:42:31.082Z,3.63
2023-04-07T05:43:31.101Z,3.64
2023-04-07T05:44:31.117Z,3.70
2023-04-07T05:45:31.162Z,3.73
2023-04-07T05:46:31.124Z,3.68
2023-04-07T05:47:31.146Z,3.76
2023-04-07T05:48:31.173Z,3.76
2023-04-07T05:49:31.154Z,3.82
2023-04-07T05:50:31.165Z,3.82
2023-04-07T05:51:31.173Z,3.86
2023-04-07T05:52:31.187Z,3.91
2023-04-07T05:53:31.195Z,3.89
2023-04-07T05:54:31.203Z,3.88
2023-04-07T05:55:31.214Z,3.95
2023-04-07T05:56:31.232Z,3.89
2023-04-07T05:57:31.235Z,4.02
2023-04-07T05:58:31.244Z,4.00
2023-04-07T05:59:31.254Z,4.09
2023-04-07T06:00:31.265Z,4.09
2023-04-07T06:01:31.294Z,4.04
2023-04-07T06:02:31.380Z,4.10
2023-04-07T06:03:31.425Z,4.16
2023-04-07T06:04:31.307Z,4.13
2023-04-07T06:05:31.409Z,4.24
2023-04-07T06:06:31.415Z,4.22
2023-04-07T06:07:31.334Z,4.27
2023-04-07T06:08:31.351Z,4.34
2023-04-07T06:09:31.354Z,4.34
2023-04-07T06:10:31.370Z,4.27
2023-04-07T06:11:31.393Z,4.39
2023-04-07T06:12:31.387Z,4.39
2023-04-07T06:13:31.403Z,4.45
2023-04-07T06:14:31.406Z,4.52
2023-04-07T06:15:31.424Z,4.63
2023-04-07T06:16:31.446Z,4.70
2023-04-07T06:17:31.469Z,4.76
2023-04-07T06:18:31.449Z,4.90
2023-04-07T06:19:31.467Z,4.90
2023-04-07T06:20:31.472Z,4.92
2023-04-07T06:21:31.496Z,4.98
2023-04-07T06:22:31.495Z,5.10
2023-04-07T06:23:31.508Z,5.19
2023-04-07T06:24:31.516Z,5.22
2023-04-07T06:25:31.552Z,5.31
2023-04-07T06:26:31.534Z,5.38
2023-04-07T06:27:31.545Z,5.49
2023-04-07T06:28:31.559Z,5.58
2023-04-07T06:29:31.572Z,5.62
2023-04-07T06:30:31.648Z,5.64
2023-04-07T06:31:31.595Z,5.64
2023-04-07T06:32:31.658Z,5.80
2023-04-07T06:33:31.662Z,5.84
2023-04-07T06:34:31.635Z,5.90
2023-04-07T06:35:31.640Z,5.92
2023-04-07T06:36:31.681Z,5.94
2023-04-07T06:37:31.663Z,5.91
2023-04-07T06:38:31.695Z,5.95
2023-04-07T06:39:31.681Z,6.02
2023-04-07T06:40:31.694Z,6.06
2023-04-07T06:41:31.708Z,6.05
2023-04-07T06:42:31.722Z,5.98
2023-04-07T06:43:31.739Z,6.05
2023-04-07T06:44:31.743Z,6.06
2023-04-07T06:45:31.759Z,6.10
2023-04-07T06:46:31.827Z,6.20
2023-04-07T06:47:31.790Z,6.20
2023-04-07T06:48:31.789Z,6.19
2023-04-07T06:49:31.812Z,6.26
2023-04-07T06:50:31.836Z,6.19
2023-04-07T06:51:31.833Z,6.17
2023-04-07T06:52:31.837Z,6.28
2023-04-07T06:53:31.845Z,6.22
2023-04-07T06:54:31.859Z,6.25
2023-04-07T06:55:31.869Z,6.28
2023-04-07T06:56:31.885Z,6.31
2023-04-07T06:57:31.895Z,6.31
2023-04-07T06:58:31.922Z,6.26
2023-04-07T06:59:31.922Z,6.35
2023-04-07T07:00:31.934Z,6.35
2023-04-07T07:01:31.992Z,6.41
2023-04-07T07:02:32.041Z,6.46
2023-04-07T07:03:32.085Z,6.46
2023-04-07T07:04:32.036Z,6.46
2023-04-07T07:05:31.993Z,6.47
2023-04-07T07:06:32.006Z,6.52
2023-04-07T07:07:32.013Z,6.54
2023-04-07T07:08:32.031Z,6.52
2023-04-07T07:09:32.052Z,6.59
2023-04-07T07:10:32.051Z,6.59
2023-04-07T07:11:32.069Z,6.56
2023-04-07T07:12:32.076Z,6.54
2023-04-07T07:13:32.100Z,6.56
2023-04-07T07:14:32.104Z,6.65
2023-04-07T07:15:32.125Z,6.60
2023-04-07T07:16:32.121Z,6.62
2023-04-07T07:17:32.168Z,6.60
2023-04-07T07:18:32.149Z,6.65
2023-04-07T07:19:32.160Z,6.74
2023-04-07T07:20:32.179Z,6.74
2023-04-07T07:21:32.181Z,6.80
2023-04-07T07:22:32.194Z,6.75
2023-04-07T07:23:32.207Z,6.86
2023-04-07T07:24:32.219Z,6.86
2023-04-07T07:25:32.228Z,6.93
2023-04-07T07:26:32.242Z,6.97
2023-04-07T07:27:32.259Z,6.93
2023-04-07T07:28:32.271Z,7.00
2023-04-07T07:29:32.289Z,7.08
2023-04-07T07:30:32.290Z,7.10
2023-04-07T07:31:32.399Z,7.07
2023-04-07T07:32:32.323Z,7.01
2023-04-07T07:33:32.328Z,7.11
2023-04-07T07:34:32.341Z,7.18
2023-04-07T07:35:32.353Z,7.19
2023-04-07T07:36:32.368Z,7.23
2023-04-07T07:37:32.379Z,7.29
2023-04-07T07:38:32.804Z,7.43
2023-04-07T07:39:32.408Z,7.44
2023-04-07T07:40:32.418Z,7.55
2023-04-07T07:41:32.430Z,7.66
2023-04-07T07:42:32.448Z,7.66
2023-04-07T07:43:32.466Z,7.85
2023-04-07T07:44:32.647Z,7.85
2023-04-07T07:45:32.491Z,7.98
2023-04-07T07:46:32.531Z,8.08
2023-04-07T07:47:32.540Z,8.26
2023-04-07T07:48:32.534Z,8.27
2023-04-07T07:49:32.535Z,8.38
2023-04-07T07:50:32.691Z,8.42
2023-04-07T07:51:32.563Z,8.31
2023-04-07T07:52:32.575Z,8.36
2023-04-07T07:53:32.589Z,8.36
2023-04-07T07:54:32.606Z,8.32
2023-04-07T07:55:32.625Z,8.27
2023-04-07T07:56:32.630Z,8.39
2023-04-07T07:57:32.645Z,8.38
2023-04-07T07:58:32.663Z,8.42
2023-04-07T07:59:32.682Z,8.46
2023-04-07T08:00:32.683Z,8.46
2023-04-07T08:01:32.734Z,8.46
2023-04-07T08:02:32.821Z,8.54
2023-04-07T08:03:32.985Z,8.46
2023-04-07T08:04:32.826Z,8.57
2023-04-07T08:05:32.755Z,8.57
2023-04-07T08:06:32.769Z,8.60
2023-04-07T08:07:32.810Z,8.54
2023-04-07T08:08:32.802Z,8.57
2023-04-07T08:09:32.813Z,8.64
2023-04-07T08:10:32.827Z,8.59
2023-04-07T08:11:32.840Z,8.64
2023-04-07T08:12:32.853Z,8.64
2023-04-07T08:13:32.868Z,8.74
2023-04-07T08:14:32.884Z,8.66
2023-04-07T08:15:32.894Z,8.77
2023-04-07T08:16:32.965Z,8.78
2023-04-07T08:17:32.936Z,8.78
2023-04-07T08:18:32.938Z,8.86
2023-04-07T08:19:32.951Z,8.79
2023-04-07T08:20:32.972Z,8.79
2023-04-07T08:21:32.990Z,8.78
2023-04-07T08:22:32.995Z,8.90
2023-04-07T08:23:33.009Z,8.95
2023-04-07T08:24:33.033Z,8.99
2023-04-07T08:25:33.046Z,9.02
2023-04-07T08:26:33.057Z,9.03
2023-04-07T08:27:33.076Z,9.09
2023-04-07T08:28:33.081Z,9.00
2023-04-07T08:29:33.116Z,9.02
2023-04-07T08:30:33.113Z,9.00
2023-04-07T08:31:33.143Z,9.05
2023-04-07T08:32:33.192Z,9.08
2023-04-07T08:33:33.160Z,9.09
2023-04-07T08:34:33.176Z,9.21
2023-04-07T08:35:33.186Z,9.12
2023-04-07T08:36:33.216Z,9.18
2023-04-07T08:37:33.210Z,9.22
2023-04-07T08:38:33.228Z,9.19
2023-04-07T08:39:33.241Z,9.27
2023-04-07T08:40:33.257Z,9.33
2023-04-07T08:41:33.281Z,9.39
2023-04-07T08:42:33.283Z,9.33
2023-04-07T08:43:33.306Z,9.49
2023-04-07T08:44:33.313Z,9.47
2023-04-07T08:45:33.328Z,9.48
2023-04-07T08:46:33.390Z,9.54
2023-04-07T08:47:33.420Z,9.62
2023-04-07T08:48:33.400Z,9.70
2023-04-07T08:49:33.393Z,9.76
2023-04-07T08:50:33.420Z,9.72
2023-04-07T08:51:33.431Z,9.82
2023-04-07T08:52:33.437Z,9.87
2023-04-07T08:53:33.448Z,9.92
2023-04-07T08:54:33.463Z,10.02
2023-04-07T08:55:33.480Z,10.05
2023-04-07T08:56:33.495Z,10.02
2023-04-07T08:57:33.512Z,10.03
2023-04-07T08:58:33.528Z,9.97
2023-04-07T08:59:33.543Z,10.15
2023-04-07T09:00:33.557Z,10.15
2023-04-07T09:01:33.776Z,10.12
2023-04-07T09:02:33.771Z,10.18
2023-04-07T09:03:33.668Z,10.10
2023-04-07T09:04:33.639Z,10.10
2023-04-07T09:05:33.652Z,10.12
2023-04-07T09:06:33.654Z,10.07
2023-04-07T09:07:33.681Z,10.07
2023-04-07T09:08:33.684Z,10.17
2023-04-07T09:09:33.705Z,10.12
2023-04-07T09:10:33.714Z,10.07
2023-04-07T09:11:33.735Z,10.07
2023-04-07T09:12:33.747Z,10.15
2023-04-07T09:13:33.765Z,10.18
2023-04-07T09:14:33.780Z,10.09
2023-04-07T09:15:33.793Z,10.12
2023-04-07T09:16:33.937Z,10.15
2023-04-07T09:17:33.869Z,10.12
2023-04-07T09:18:33.839Z,10.10
2023-04-07T09:19:33.853Z,10.17
2023-04-07T09:20:33.871Z,10.09
2023-04-07T09:21:33.885Z,10.06
2023-04-07T09:22:33.903Z,9.99
2023-04-07T09:23:33.943Z,9.91
2023-04-07T09:24:33.936Z,9.97
2023-04-07T09:25:33.963Z,9.92
2023-04-07T09:26:33.963Z,9.94
2023-04-07T09:27:33.980Z,9.92
2023-04-07T09:28:33.997Z,9.97
2023-04-07T09:29:34.010Z,9.95
2023-04-07T09:30:34.023Z,9.87
2023-04-07T09:31:34.063Z,9.88
2023-04-07T09:32:34.079Z,9.87
2023-04-07T09:33:34.070Z,9.74
2023-04-07T09:34:34.085Z,9.72
2023-04-07T09:35:34.116Z,9.69
2023-04-07T09:36:34.116Z,9.72
2023-04-07T09:37:34.134Z,9.63
2023-04-07T09:38:34.149Z,9.62
2023-04-07T09:39:34.162Z,9.56
2023-04-07T09:40:34.187Z,9.44
2023-04-07T09:41:34.226Z,9.45
2023-04-07T09:42:34.204Z,9.34
2023-04-07T09:43:34.217Z,9.33
2023-04-07T09:44:34.232Z,9.26
2023-04-07T09:45:36.268Z,9.29
2023-04-07T09:46:34.280Z,9.16
2023-04-07T09:47:34.303Z,9.16
2023-04-07T09:48:34.295Z,9.12
2023-04-07T09:49:34.306Z,9.03
2023-04-07T09:50:34.322Z,9.08
2023-04-07T09:51:34.425Z,8.97
2023-04-07T09:52:34.354Z,8.92
2023-04-07T09:53:34.363Z,9.00
2023-04-07T09:54:34.403Z,9.02
2023-04-07T09:55:34.420Z,9.03
2023-04-07T09:56:34.408Z,9.02
2023-04-07T09:57:34.424Z,9.11
2023-04-07T09:58:34.442Z,9.05
2023-04-07T09:59:34.457Z,9.03
2023-04-07T10:00:34.474Z,8.99
2023-04-07T10:01:34.519Z,8.92
2023-04-07T10:02:34.531Z,8.90
2023-04-07T10:03:34.550Z,8.93
2023-04-07T10:04:34.565Z,8.95
2023-04-07T10:05:34.540Z,8.97
2023-04-07T10:06:34.550Z,8.96
2023-04-07T10:07:34.571Z,9.00
2023-04-07T10:08:34.583Z,9.02
2023-04-07T10:09:34.594Z,9.03
2023-04-07T10:10:34.608Z,9.15
2023-04-07T10:11:34.638Z,9.03
2023-04-07T10:12:34.668Z,9.08
2023-04-07T10:13:34.656Z,9.15
2023-04-07T10:14:34.668Z,9.08
2023-04-07T10:15:34.679Z,9.15
2023-04-07T10:16:34.714Z,9.12
2023-04-07T10:17:34.791Z,9.18
2023-04-07T10:18:34.725Z,9.26
2023-04-07T10:19:34.742Z,9.26
2023-04-07T10:20:34.755Z,9.33
2023-04-07T10:21:34.769Z,9.42
2023-04-07T10:22:34.782Z,9.33
2023-04-07T10:23:34.801Z,9.34
2023-04-07T10:24:34.816Z,9.31
2023-04-07T10:25:34.829Z,9.49
2023-04-07T10:26:34.844Z,9.44
2023-04-07T10:27:34.859Z,9.33
2023-04-07T10:28:34.873Z,9.40
2023-04-07T10:29:34.889Z,9.33
2023-04-07T10:30:34.903Z,9.40
2023-04-07T10:31:34.945Z,9.34
2023-04-07T10:32:35.001Z,9.44
2023-04-07T10:33:34.948Z,9.31
2023-04-07T10:34:34.966Z,9.31
2023-04-07T10:35:34.992Z,9.34
2023-04-07T10:36:34.993Z,9.39
2023-04-07T10:37:35.017Z,9.31
2023-04-07T10:38:35.031Z,9.36
2023-04-07T10:39:35.036Z,9.37
2023-04-07T10:40:35.049Z,9.29
2023-04-07T10:41:35.066Z,9.31
2023-04-07T10:42:35.080Z,9.27
2023-04-07T10:43:35.099Z,9.36
2023-04-07T10:44:35.111Z,9.29
2023-04-07T10:45:35.137Z,9.22
2023-04-07T10:46:35.163Z,9.22
2023-04-07T10:47:35.194Z,9.27
2023-04-07T10:48:35.166Z,9.19
2023-04-07T10:49:35.188Z,9.16
2023-04-07T10:50:35.196Z,9.18
2023-04-07T10:51:35.213Z,9.13
2023-04-07T10:52:35.224Z,9.15
2023-04-07T10:53:35.437Z,9.13
2023-04-07T10:54:35.254Z,9.16
2023-04-07T10:55:35.269Z,9.18
2023-04-07T10:56:35.284Z,9.27
2023-04-07T10:57:35.301Z,9.26
2023-04-07T10:58:35.326Z,9.27
2023-04-07T10:59:35.330Z,9.30
2023-04-07T11:00:35.343Z,9.40
2023-04-07T11:01:35.419Z,9.30
2023-04-07T11:02:35.615Z,9.39
2023-04-07T11:03:35.466Z,9.48
2023-04-07T11:04:35.483Z,9.52
2023-04-07T11:05:35.414Z,9.47
2023-04-07T11:06:35.431Z,9.56
2023-04-07T11:07:35.449Z,9.59
2023-04-07T11:08:35.502Z,9.72
2023-04-07T11:09:35.474Z,9.80
2023-04-07T11:10:35.493Z,9.77
2023-04-07T11:11:35.504Z,9.80
2023-04-07T11:12:35.520Z,9.81
2023-04-07T11:13:35.546Z,9.81
2023-04-07T11:14:36.922Z,9.85
2023-04-07T11:15:37.037Z,9.88
2023-04-07T11:16:35.619Z,9.90
2023-04-07T11:17:35.618Z,9.92
2023-04-07T11:18:35.610Z,9.82
2023-04-07T11:19:35.629Z,9.81
2023-04-07T11:20:35.649Z,9.72
2023-04-07T11:21:35.664Z,9.77
2023-04-07T11:22:35.682Z,9.77
2023-04-07T11:23:35.686Z,9.76
2023-04-07T11:24:35.703Z,9.74
2023-04-07T11:25:35.721Z,9.76
2023-04-07T11:26:35.734Z,9.76
2023-04-07T11:27:35.751Z,9.59
2023-04-07T11:28:35.764Z,9.59
2023-04-07T11:29:35.780Z,9.66
2023-04-07T11:30:35.794Z,9.59
2023-04-07T11:31:35.860Z,9.59
2023-04-07T11:32:35.832Z,9.58
2023-04-07T11:33:35.842Z,9.49
2023-04-07T11:34:35.854Z,9.44
2023-04-07T11:35:35.884Z,9.49
2023-04-07T11:36:35.904Z,9.48
2023-04-07T11:37:35.899Z,9.44
2023-04-07T11:38:35.917Z,9.40
2023-04-07T11:39:35.928Z,9.29
2023-04-07T11:40:35.958Z,9.21
2023-04-07T11:41:35.958Z,9.16
2023-04-07T11:42:35.984Z,9.08
2023-04-07T11:43:35.987Z,9.19
2023-04-07T11:44:36.005Z,9.05
2023-04-07T11:45:36.021Z,9.02
2023-04-07T11:46:36.136Z,8.99
2023-04-07T11:47:36.108Z,9.05
2023-04-07T11:48:36.065Z,9.03
2023-04-07T11:49:36.077Z,8.95
2023-04-07T11:50:36.091Z,8.86
2023-04-07T11:51:36.125Z,8.89
2023-04-07T11:52:36.120Z,8.77
2023-04-07T11:53:36.133Z,8.78
2023-04-07T11:54:36.152Z,8.82
2023-04-07T11:55:36.165Z,8.77
2023-04-07T11:56:36.179Z,8.66
2023-04-07T11:57:36.191Z,8.59
2023-04-07T11:58:36.204Z,8.56
2023-04-07T11:59:36.219Z,8.34
2023-04-07T12:00:36.238Z,8.31
2023-04-07T12:01:36.271Z,8.41
2023-04-07T12:02:36.452Z,8.32
2023-04-07T12:03:36.379Z,8.26
2023-04-07T12:04:36.434Z,8.26
2023-04-07T12:05:36.311Z,8.31
2023-04-07T12:06:36.318Z,8.27
2023-04-07T12:07:36.335Z,8.27
2023-04-07T12:08:36.348Z,8.18
2023-04-07T12:09:36.579Z,8.17
2023-04-07T12:10:36.376Z,8.26
2023-04-07T12:11:36.391Z,8.27
2023-04-07T12:12:36.419Z,8.21
2023-04-07T12:13:36.426Z,8.27
2023-04-07T12:14:36.438Z,8.24
2023-04-07T12:15:36.444Z,8.27
2023-04-07T12:16:36.503Z,8.24
2023-04-07T12:17:36.540Z,8.27
2023-04-07T12:18:36.506Z,8.28
2023-04-07T12:19:36.630Z,8.32
2023-04-07T12:20:37.577Z,8.26
2023-04-07T12:21:36.534Z,8.28
2023-04-07T12:22:36.569Z,8.21
2023-04-07T12:23:36.568Z,8.18
2023-04-07T12:24:36.576Z,8.18
2023-04-07T12:25:36.593Z,8.08
2023-04-07T12:26:36.607Z,8.02
2023-04-07T12:27:42.707Z,7.98
2023-04-07T12:28:36.627Z,7.98
2023-04-07T12:29:36.662Z,7.96
2023-04-07T12:30:36.662Z,7.98
2023-04-07T12:31:36.732Z,7.81
2023-04-07T12:32:36.712Z,7.85
2023-04-07T12:33:36.702Z,7.83
2023-04-07T12:34:36.708Z,7.78
2023-04-07T12:35:36.722Z,7.75
2023-04-07T12:36:36.734Z,7.67
2023-04-07T12:37:36.747Z,7.67
2023-04-07T12:38:36.760Z,7.62
2023-04-07T12:39:36.775Z,7.56
2023-04-07T12:40:36.790Z,7.51
2023-04-07T12:41:36.802Z,7.48
2023-04-07T12:42:36.818Z,7.47
2023-04-07T12:43:36.829Z,7.40
2023-04-07T12:44:36.837Z,7.40
2023-04-07T12:45:36.933Z,7.36
2023-04-07T12:46:36.866Z,7.47
2023-04-07T12:47:36.921Z,7.39
2023-04-07T12:48:36.899Z,7.33
2023-04-07T12:49:36.904Z,7.41
2023-04-07T12:50:36.927Z,7.41
2023-04-07T12:51:36.933Z,7.39
2023-04-07T12:52:36.950Z,7.37
2023-04-07T12:53:36.969Z,7.37
2023-04-07T12:54:36.981Z,7.37
2023-04-07T12:55:36.983Z,7.39
2023-04-07T12:56:36.998Z,7.37
2023-04-07T12:57:37.008Z,7.26
2023-04-07T12:58:37.021Z,7.23
2023-04-07T12:59:37.032Z,7.29
2023-04-07T13:00:37.045Z,7.23
2023-04-07T13:01:37.200Z,7.23
2023-04-07T13:02:37.218Z,7.28
2023-04-07T13:03:37.301Z,7.13
2023-04-07T13:04:37.241Z,7.19
2023-04-07T13:05:37.109Z,7.26
2023-04-07T13:06:37.121Z,7.18
2023-04-07T13:07:37.135Z,7.22
2023-04-07T13:08:37.155Z,7.25
2023-04-07T13:09:37.162Z,7.25
2023-04-07T13:10:37.172Z,7.13
2023-04-07T13:11:37.182Z,7.10
2023-04-07T13:12:37.197Z,7.00
2023-04-07T13:13:37.221Z,7.03
2023-04-07T13:14:39.711Z,7.00
2023-04-07T13:15:37.237Z,6.93
2023-04-07T13:16:37.256Z,6.97
2023-04-07T13:17:37.296Z,6.96